sensor_id;sensor_type;location;lat;lon;timestamp;pressure;altitude;pressure_sealevel;temperature
62611;BMP280;48683;48.084;17.272;2023-01-29T00:01:08;101319.66;;;1.30
62611;BMP280;48683;48.084;17.272;2023-01-29T00:03:34;101326.03;;;1.29
62611;BMP280;48683;48.084;17.272;2023-01-29T00:06:03;101328.47;;;1.25
62611;BMP280;48683;48.084;17.272;2023-01-29T00:08:35;101331.03;;;1.30
62611;BMP280;48683;48.084;17.272;2023-01-29T00:11:05;101323.19;;;1.25
62611;BMP280;48683;48.084;17.272;2023-01-29T00:13:31;101324.56;;;1.23
62611;BMP280;48683;48.084;17.272;2023-01-29T00:15:59;101319.28;;;1.23
62611;BMP280;48683;48.084;17.272;2023-01-29T00:18:24;101328.97;;;1.27
62611;BMP280;48683;48.084;17.272;2023-01-29T00:20:50;101326.53;;;1.31
62611;BMP280;48683;48.084;17.272;2023-01-29T00:23:16;101323.38;;;1.29
62611;BMP280;48683;48.084;17.272;2023-01-29T00:25:42;101327.78;;;1.33
62611;BMP280;48683;48.084;17.272;2023-01-29T00:28:08;101329.19;;;1.31
62611;BMP280;48683;48.084;17.272;2023-01-29T00:30:34;101339.25;;;1.29
62611;BMP280;48683;48.084;17.272;2023-01-29T00:33:00;101333.97;;;1.29
62611;BMP280;48683;48.084;17.272;2023-01-29T00:35:25;101340.22;;;1.33
62611;BMP280;48683;48.084;17.272;2023-01-29T00:37:50;101328.19;;;1.27
62611;BMP280;48683;48.084;17.272;2023-01-29T00:40:16;101339.75;;;1.31
62611;BMP280;48683;48.084;17.272;2023-01-29T00:42:43;101324.28;;;1.24
62611;BMP280;48683;48.084;17.272;2023-01-29T00:45:27;101324.28;;;1.24
62611;BMP280;48683;48.084;17.272;2023-01-29T00:47:53;101332.97;;;1.25
62611;BMP280;48683;48.084;17.272;2023-01-29T00:50:18;101339.38;;;1.24
62611;BMP280;48683;48.084;17.272;2023-01-29T00:52:44;101344.66;;;1.24
62611;BMP280;48683;48.084;17.272;2023-01-29T00:55:10;101342.03;;;1.24
62611;BMP280;48683;48.084;17.272;2023-01-29T00:57:36;101341.91;;;1.29
62611;BMP280;48683;48.084;17.272;2023-01-29T01:00:04;101338.09;;;1.21
62611;BMP280;48683;48.084;17.272;2023-01-29T01:02:29;101336.03;;;1.18
62611;BMP280;48683;48.084;17.272;2023-01-29T01:05:15;101337.53;;;1.24
62611;BMP280;48683;48.084;17.272;2023-01-29T01:07:48;101333.66;;;1.17
62611;BMP280;48683;48.084;17.272;2023-01-29T01:10:26;101339.94;;;1.21
62611;BMP280;48683;48.084;17.272;2023-01-29T01:12:55;101336.31;;;1.17
62611;BMP280;48683;48.084;17.272;2023-01-29T01:15:24;101334.19;;;1.19
62611;BMP280;48683;48.084;17.272;2023-01-29T01:17:57;101340.25;;;1.19
62611;BMP280;48683;48.084;17.272;2023-01-29T01:20:23;101346.13;;;1.16
62611;BMP280;48683;48.084;17.272;2023-01-29T01:22:49;101340.25;;;1.19
62611;BMP280;48683;48.084;17.272;2023-01-29T01:25:14;101335.38;;;1.13
62611;BMP280;48683;48.084;17.272;2023-01-29T01:27:40;101346.91;;;1.17
62611;BMP280;48683;48.084;17.272;2023-01-29T01:30:09;101349.06;;;1.15
62611;BMP280;48683;48.084;17.272;2023-01-29T01:32:35;101343.78;;;1.15
62611;BMP280;48683;48.084;17.272;2023-01-29T01:35:01;101346.72;;;1.13
62611;BMP280;48683;48.084;17.272;2023-01-29T01:37:26;101347.31;;;1.10
62611;BMP280;48683;48.084;17.272;2023-01-29T01:39:51;101348.59;;;1.13
62611;BMP280;48683;48.084;17.272;2023-01-29T01:42:22;101353.38;;;1.11
62611;BMP280;48683;48.084;17.272;2023-01-29T01:45:03;101350.44;;;1.12
62611;BMP280;48683;48.084;17.272;2023-01-29T01:47:42;101352.00;;;1.13
62611;BMP280;48683;48.084;17.272;2023-01-29T01:50:13;101348.59;;;1.13
62611;BMP280;48683;48.084;17.272;2023-01-29T01:52:44;101343.97;;;1.05
62611;BMP280;48683;48.084;17.272;2023-01-29T01:55:12;101346.31;;;1.06
62611;BMP280;48683;48.084;17.272;2023-01-29T01:57:39;101356.09;;;1.06
62611;BMP280;48683;48.084;17.272;2023-01-29T02:00:08;101358.34;;;0.99
62611;BMP280;48683;48.084;17.272;2023-01-29T02:02:37;101356.50;;;0.99
62611;BMP280;48683;48.084;17.272;2023-01-29T02:05:22;101362.59;;;1.00
62611;BMP280;48683;48.084;17.272;2023-01-29T02:08:06;101358.94;;;0.95
62611;BMP280;48683;48.084;17.272;2023-01-29T02:10:50;101362.38;;;0.96
62611;BMP280;48683;48.084;17.272;2023-01-29T02:13:16;101362.88;;;0.98
62611;BMP280;48683;48.084;17.272;2023-01-29T02:15:43;101368.94;;;0.99
62611;BMP280;48683;48.084;17.272;2023-01-29T02:18:18;101367.69;;;0.96
62611;BMP280;48683;48.084;17.272;2023-01-29T02:27:11;101371.09;;;0.97
62611;BMP280;48683;48.084;17.272;2023-01-29T02:32:24;101390.88;;;0.99
62611;BMP280;48683;48.084;17.272;2023-01-29T02:35:06;101388.75;;;1.01
62611;BMP280;48683;48.084;17.272;2023-01-29T02:38:22;101377.34;;;0.87
62611;BMP280;48683;48.084;17.272;2023-01-29T02:51:30;101386.28;;;0.91
62611;BMP280;48683;48.084;17.272;2023-01-29T02:54:03;101386.06;;;0.87
62611;BMP280;48683;48.084;17.272;2023-01-29T02:56:39;101385.75;;;0.75
62611;BMP280;48683;48.084;17.272;2023-01-29T02:59:14;101392.22;;;0.83
62611;BMP280;48683;48.084;17.272;2023-01-29T03:01:47;101380.78;;;0.74
62611;BMP280;48683;48.084;17.272;2023-01-29T03:04:21;101391.53;;;0.77
62611;BMP280;48683;48.084;17.272;2023-01-29T03:06:51;101388.31;;;0.80
62611;BMP280;48683;48.084;17.272;2023-01-29T03:09:27;101393.59;;;0.80
62611;BMP280;48683;48.084;17.272;2023-01-29T03:11:57;101395.47;;;0.80
62611;BMP280;48683;48.084;17.272;2023-01-29T03:14:34;101400.75;;;0.80
62611;BMP280;48683;48.084;17.272;2023-01-29T03:17:22;101397.50;;;0.83
62611;BMP280;48683;48.084;17.272;2023-01-29T03:19:49;101398.88;;;0.80
62611;BMP280;48683;48.084;17.272;2023-01-29T03:22:16;101396.84;;;0.77
62611;BMP280;48683;48.084;17.272;2023-01-29T03:24:46;101405.84;;;0.76
62611;BMP280;48683;48.084;17.272;2023-01-29T03:27:35;101406.81;;;0.80
62611;BMP280;48683;48.084;17.272;2023-01-29T03:30:21;101402.81;;;0.83
62611;BMP280;48683;48.084;17.272;2023-01-29T03:33:07;101396.63;;;0.74
62611;BMP280;48683;48.084;17.272;2023-01-29T03:35:37;101398.19;;;0.75
62611;BMP280;48683;48.084;17.272;2023-01-29T03:38:06;101403.47;;;0.75
62611;BMP280;48683;48.084;17.272;2023-01-29T03:43:09;101411.91;;;0.77
62611;BMP280;48683;48.084;17.272;2023-01-29T03:46:17;101408.16;;;0.78
62611;BMP280;48683;48.084;17.272;2023-01-29T03:48:58;101404.75;;;0.77
62611;BMP280;48683;48.084;17.272;2023-01-29T03:51:33;101400.22;;;0.78
62611;BMP280;48683;48.084;17.272;2023-01-29T03:54:08;101402.31;;;0.81
62611;BMP280;48683;48.084;17.272;2023-01-29T03:56:56;101397.31;;;0.79
62611;BMP280;48683;48.084;17.272;2023-01-29T03:59:40;101396.31;;;0.75
62611;BMP280;48683;48.084;17.272;2023-01-29T04:02:15;101387.19;;;0.68
62611;BMP280;48683;48.084;17.272;2023-01-29T04:04:45;101388.56;;;0.65
62611;BMP280;48683;48.084;17.272;2023-01-29T04:07:13;101374.84;;;0.63
62611;BMP280;48683;48.084;17.272;2023-01-29T04:09:50;101376.91;;;0.66
62611;BMP280;48683;48.084;17.272;2023-01-29T04:12:23;101370.94;;;0.61
62611;BMP280;48683;48.084;17.272;2023-01-29T04:14:51;101369.34;;;0.60
62611;BMP280;48683;48.084;17.272;2023-01-29T04:17:21;101366.72;;;0.60
62611;BMP280;48683;48.084;17.272;2023-01-29T04:19:47;101375.94;;;0.62
62611;BMP280;48683;48.084;17.272;2023-01-29T04:22:23;101364.28;;;0.63
62611;BMP280;48683;48.084;17.272;2023-01-29T04:24:50;101365.66;;;0.61
62611;BMP280;48683;48.084;17.272;2023-01-29T04:30:22;101365.56;;;0.66
62611;BMP280;48683;48.084;17.272;2023-01-29T04:44:09;101368.50;;;0.64
62611;BMP280;48683;48.084;17.272;2023-01-29T04:52:13;101368.56;;;0.59
62611;BMP280;48683;48.084;17.272;2023-01-29T04:57:19;101374.94;;;0.58
62611;BMP280;48683;48.084;17.272;2023-01-29T04:59:53;101371.41;;;0.49
62611;BMP280;48683;48.084;17.272;2023-01-29T05:02:21;101380.59;;;0.52
62611;BMP280;48683;48.084;17.272;2023-01-29T05:04:48;101373.91;;;0.40
62611;BMP280;48683;48.084;17.272;2023-01-29T05:07:16;101394.31;;;0.54
62611;BMP280;48683;48.084;17.272;2023-01-29T05:09:44;101387.53;;;0.47
62611;BMP280;48683;48.084;17.272;2023-01-29T05:12:10;101397.81;;;0.49
62611;BMP280;48683;48.084;17.272;2023-01-29T05:14:36;101389.38;;;0.47
62611;BMP280;48683;48.084;17.272;2023-01-29T05:17:09;101388.06;;;0.31
62611;BMP280;48683;48.084;17.272;2023-01-29T05:19:36;101395.63;;;0.37
62611;BMP280;48683;48.084;17.272;2023-01-29T05:22:03;101398.34;;;0.32
62611;BMP280;48683;48.084;17.272;2023-01-29T05:24:29;101406.78;;;0.34
62611;BMP280;48683;48.084;17.272;2023-01-29T05:26:54;101400.19;;;0.32
62611;BMP280;48683;48.084;17.272;2023-01-29T05:29:42;101404.25;;;0.24
62611;BMP280;48683;48.084;17.272;2023-01-29T05:32:09;101396.84;;;0.26
62611;BMP280;48683;48.084;17.272;2023-01-29T05:34:34;101389.00;;;0.21
62611;BMP280;48683;48.084;17.272;2023-01-29T05:36:59;101386.22;;;0.13
62611;BMP280;48683;48.084;17.272;2023-01-29T05:39:25;101380.88;;;0.18
62611;BMP280;48683;48.084;17.272;2023-01-29T05:41:50;101387.56;;;0.10
62611;BMP280;48683;48.084;17.272;2023-01-29T05:44:15;101388.84;;;0.13
62611;BMP280;48683;48.084;17.272;2023-01-29T05:46:41;101391.00;;;0.11
62611;BMP280;48683;48.084;17.272;2023-01-29T05:49:07;101381.09;;;0.03
62611;BMP280;48683;48.084;17.272;2023-01-29T05:51:33;101387.06;;;0.08
62611;BMP280;48683;48.084;17.272;2023-01-29T05:53:58;101401.25;;;0.12
62611;BMP280;48683;48.084;17.272;2023-01-29T05:56:24;101402.16;;;0.08
62611;BMP280;48683;48.084;17.272;2023-01-29T05:58:49;101397.50;;;-0.01
62611;BMP280;48683;48.084;17.272;2023-01-29T06:01:17;101404.28;;;0.06
62611;BMP280;48683;48.084;17.272;2023-01-29T06:03:43;101407.66;;;0.11
62611;BMP280;48683;48.084;17.272;2023-01-29T06:06:09;101397.94;;;0.07
62611;BMP280;48683;48.084;17.272;2023-01-29T06:08:34;101388.69;;;0.04
62611;BMP280;48683;48.084;17.272;2023-01-29T06:11:00;101398.50;;;0.04
62611;BMP280;48683;48.084;17.272;2023-01-29T06:13:25;101386.94;;;-0.01
62611;BMP280;48683;48.084;17.272;2023-01-29T06:15:50;101378.03;;;-0.05
62611;BMP280;48683;48.084;17.272;2023-01-29T06:18:16;101383.31;;;-0.05
62611;BMP280;48683;48.084;17.272;2023-01-29T06:20:41;101378.03;;;-0.05
62611;BMP280;48683;48.084;17.272;2023-01-29T06:23:06;101378.34;;;-0.11
62611;BMP280;48683;48.084;17.272;2023-01-29T06:25:32;101370.75;;;-0.13
62611;BMP280;48683;48.084;17.272;2023-01-29T06:27:57;101380.78;;;-0.15
62611;BMP280;48683;48.084;17.272;2023-01-29T06:30:23;101387.50;;;-0.22
62611;BMP280;48683;48.084;17.272;2023-01-29T06:32:48;101384.00;;;-0.18
62611;BMP280;48683;48.084;17.272;2023-01-29T06:35:14;101375.06;;;-0.22
62611;BMP280;48683;48.084;17.272;2023-01-29T06:37:39;101379.50;;;-0.36
62611;BMP280;48683;48.084;17.272;2023-01-29T06:40:05;101372.59;;;-0.32
62611;BMP280;48683;48.084;17.272;2023-01-29T06:42:30;101393.19;;;-0.34
62611;BMP280;48683;48.084;17.272;2023-01-29T06:44:56;101384.78;;;-0.36
62611;BMP280;48683;48.084;17.272;2023-01-29T06:47:22;101399.75;;;-0.31
62611;BMP280;48683;48.084;17.272;2023-01-29T06:49:48;101407.69;;;-0.31
62611;BMP280;48683;48.084;17.272;2023-01-29T06:52:14;101413.72;;;-0.31
62611;BMP280;48683;48.084;17.272;2023-01-29T06:54:39;101404.38;;;-0.42
62611;BMP280;48683;48.084;17.272;2023-01-29T06:57:04;101406.22;;;-0.42
62611;BMP280;48683;48.084;17.272;2023-01-29T06:59:30;101407.78;;;-0.41
62611;BMP280;48683;48.084;17.272;2023-01-29T07:01:55;101414.06;;;-0.37
62611;BMP280;48683;48.084;17.272;2023-01-29T07:04:20;101412.56;;;-0.43
62611;BMP280;48683;48.084;17.272;2023-01-29T07:06:46;101417.00;;;-0.39
62611;BMP280;48683;48.084;17.272;2023-01-29T07:09:12;101419.69;;;-0.44
62611;BMP280;48683;48.084;17.272;2023-01-29T07:11:40;101429.63;;;-0.36
62611;BMP280;48683;48.084;17.272;2023-01-29T07:14:06;101424.34;;;-0.36
62611;BMP280;48683;48.084;17.272;2023-01-29T07:16:31;101419.88;;;-0.35
62611;BMP280;48683;48.084;17.272;2023-01-29T07:18:57;101426.22;;;-0.36
62611;BMP280;48683;48.084;17.272;2023-01-29T07:21:22;101427.06;;;-0.41
62611;BMP280;48683;48.084;17.272;2023-01-29T07:23:48;101418.97;;;-0.50
62611;BMP280;48683;48.084;17.272;2023-01-29T07:26:13;101425.03;;;-0.49
62611;BMP280;48683;48.084;17.272;2023-01-29T07:28:39;101423.22;;;-0.54
62611;BMP280;48683;48.084;17.272;2023-01-29T07:31:05;101434.00;;;-0.50
62611;BMP280;48683;48.084;17.272;2023-01-29T07:33:32;101424.59;;;-0.56
62611;BMP280;48683;48.084;17.272;2023-01-29T07:35:57;101432.88;;;-0.68
62611;BMP280;48683;48.084;17.272;2023-01-29T07:38:23;101433.84;;;-0.59
62611;BMP280;48683;48.084;17.272;2023-01-29T07:40:48;101428.50;;;-0.54
62611;BMP280;48683;48.084;17.272;2023-01-29T07:43:15;101406.50;;;-0.68
62611;BMP280;48683;48.084;17.272;2023-01-29T07:45:41;101407.09;;;-0.71
62611;BMP280;48683;48.084;17.272;2023-01-29T07:48:09;101416.78;;;-0.66
62611;BMP280;48683;48.084;17.272;2023-01-29T07:50:36;101406.50;;;-0.68
62611;BMP280;48683;48.084;17.272;2023-01-29T07:53:01;101417.78;;;-0.62
62611;BMP280;48683;48.084;17.272;2023-01-29T07:55:27;101417.84;;;-0.67
62611;BMP280;48683;48.084;17.272;2023-01-29T07:58:00;101424.41;;;-0.65
62611;BMP280;48683;48.084;17.272;2023-01-29T08:00:26;101413.91;;;-0.70
62611;BMP280;48683;48.084;17.272;2023-01-29T08:02:52;101429.75;;;-0.46
62611;BMP280;48683;48.084;17.272;2023-01-29T08:05:18;101416.31;;;-0.50
62611;BMP280;48683;48.084;17.272;2023-01-29T08:07:43;101429.19;;;-0.43
62611;BMP280;48683;48.084;17.272;2023-01-29T08:10:09;101422.84;;;-0.42
62611;BMP280;48683;48.084;17.272;2023-01-29T08:12:35;101420.38;;;-0.33
62611;BMP280;48683;48.084;17.272;2023-01-29T08:15:00;101426.81;;;-0.21
62611;BMP280;48683;48.084;17.272;2023-01-29T08:17:25;101429.44;;;-0.21
62611;BMP280;48683;48.084;17.272;2023-01-29T08:19:51;101438.22;;;-0.25
62611;BMP280;48683;48.084;17.272;2023-01-29T08:22:16;101419.66;;;-0.39
62611;BMP280;48683;48.084;17.272;2023-01-29T08:24:42;101429.13;;;-0.38
62611;BMP280;48683;48.084;17.272;2023-01-29T08:27:07;101425.06;;;-0.30
62611;BMP280;48683;48.084;17.272;2023-01-29T08:29:33;101429.50;;;-0.26
62611;BMP280;48683;48.084;17.272;2023-01-29T08:31:58;101425.81;;;-0.25
62611;BMP280;48683;48.084;17.272;2023-01-29T08:34:25;101428.09;;;-0.18
62611;BMP280;48683;48.084;17.272;2023-01-29T08:36:50;101428.69;;;-0.03
62611;BMP280;48683;48.084;17.272;2023-01-29T08:39:17;101431.63;;;0.15
62611;BMP280;48683;48.084;17.272;2023-01-29T08:41:42;101435.69;;;0.26
62611;BMP280;48683;48.084;17.272;2023-01-29T08:44:07;101422.41;;;0.12
62611;BMP280;48683;48.084;17.272;2023-01-29T08:46:33;101419.13;;;0.20
62611;BMP280;48683;48.084;17.272;2023-01-29T08:48:58;101423.19;;;0.13
62611;BMP280;48683;48.084;17.272;2023-01-29T08:51:24;101422.50;;;0.07
62611;BMP280;48683;48.084;17.272;2023-01-29T08:53:50;101422.06;;;0.00
62611;BMP280;48683;48.084;17.272;2023-01-29T08:56:16;101443.53;;;0.12
62611;BMP280;48683;48.084;17.272;2023-01-29T08:58:41;101442.09;;;0.20
62611;BMP280;48683;48.084;17.272;2023-01-29T09:01:09;101437.91;;;0.19
62611;BMP280;48683;48.084;17.272;2023-01-29T09:03:35;101441.47;;;0.28
62611;BMP280;48683;48.084;17.272;2023-01-29T09:06:01;101437.69;;;0.34
62611;BMP280;48683;48.084;17.272;2023-01-29T09:08:26;101435.91;;;0.29
62611;BMP280;48683;48.084;17.272;2023-01-29T09:10:52;101444.81;;;0.33
62611;BMP280;48683;48.084;17.272;2023-01-29T09:13:17;101437.72;;;0.47
62611;BMP280;48683;48.084;17.272;2023-01-29T09:15:43;101440.22;;;0.39
62611;BMP280;48683;48.084;17.272;2023-01-29T09:18:08;101445.66;;;0.47
62611;BMP280;48683;48.084;17.272;2023-01-29T09:20:33;101445.09;;;0.51
62611;BMP280;48683;48.084;17.272;2023-01-29T09:23:06;101433.97;;;0.35
62611;BMP280;48683;48.084;17.272;2023-01-29T09:25:32;101438.47;;;0.34
62611;BMP280;48683;48.084;17.272;2023-01-29T09:27:57;101428.56;;;0.26
62611;BMP280;48683;48.084;17.272;2023-01-29T09:30:23;101419.97;;;0.16
62611;BMP280;48683;48.084;17.272;2023-01-29T09:32:48;101433.31;;;0.24
62611;BMP280;48683;48.084;17.272;2023-01-29T09:35:13;101428.78;;;0.11
62611;BMP280;48683;48.084;17.272;2023-01-29T09:37:39;101426.97;;;0.07
62611;BMP280;48683;48.084;17.272;2023-01-29T09:40:05;101447.97;;;0.17
62611;BMP280;48683;48.084;17.272;2023-01-29T09:42:37;101441.66;;;0.13
62611;BMP280;48683;48.084;17.272;2023-01-29T09:45:40;101449.47;;;0.23
62611;BMP280;48683;48.084;17.272;2023-01-29T09:48:10;101448.38;;;0.24
62611;BMP280;48683;48.084;17.272;2023-01-29T09:50:48;101444.81;;;0.33
62611;BMP280;48683;48.084;17.272;2023-01-29T09:53:24;101448.84;;;0.31
62611;BMP280;48683;48.084;17.272;2023-01-29T10:04:38;101446.59;;;0.57
62611;BMP280;48683;48.084;17.272;2023-01-29T10:09:58;101452.97;;;0.37
62611;BMP280;48683;48.084;17.272;2023-01-29T10:15:21;101447.41;;;0.71
62611;BMP280;48683;48.084;17.272;2023-01-29T10:23:26;101441.31;;;0.89
62611;BMP280;48683;48.084;17.272;2023-01-29T10:25:53;101440.19;;;0.76
62611;BMP280;48683;48.084;17.272;2023-01-29T10:28:24;101428.13;;;0.70
62611;BMP280;48683;48.084;17.272;2023-01-29T10:31:08;101418.72;;;0.64
62611;BMP280;48683;48.084;17.272;2023-01-29T10:33:41;101420.31;;;0.79
62611;BMP280;48683;48.084;17.272;2023-01-29T10:36:12;101417.81;;;0.87
62611;BMP280;48683;48.084;17.272;2023-01-29T10:38:45;101437.31;;;1.05
62611;BMP280;48683;48.084;17.272;2023-01-29T10:46:27;101417.75;;;1.20
62611;BMP280;48683;48.084;17.272;2023-01-29T10:57:00;101396.00;;;1.23
62611;BMP280;48683;48.084;17.272;2023-01-29T10:59:59;101403.94;;;1.50
62611;BMP280;48683;48.084;17.272;2023-01-29T11:02:32;101401.59;;;1.49
62611;BMP280;48683;48.084;17.272;2023-01-29T11:04:57;101401.38;;;1.45
62611;BMP280;48683;48.084;17.272;2023-01-29T11:07:23;101386.69;;;1.39
62611;BMP280;48683;48.084;17.272;2023-01-29T11:10:10;101401.38;;;1.45
62611;BMP280;48683;48.084;17.272;2023-01-29T11:12:38;101389.31;;;1.53
62611;BMP280;48683;48.084;17.272;2023-01-29T11:15:15;101381.28;;;1.44
62611;BMP280;48683;48.084;17.272;2023-01-29T11:20:29;101377.78;;;1.35
62611;BMP280;48683;48.084;17.272;2023-01-29T11:22:54;101369.75;;;1.26
62611;BMP280;48683;48.084;17.272;2023-01-29T11:25:20;101367.88;;;1.27
62611;BMP280;48683;48.084;17.272;2023-01-29T11:27:53;101361.22;;;1.16
62611;BMP280;48683;48.084;17.272;2023-01-29T11:30:29;101354.38;;;1.01
62611;BMP280;48683;48.084;17.272;2023-01-29T11:35:29;101343.75;;;0.74
62611;BMP280;48683;48.084;17.272;2023-01-29T11:38:07;101353.97;;;1.08
62611;BMP280;48683;48.084;17.272;2023-01-29T11:40:38;101342.00;;;1.10
62611;BMP280;48683;48.084;17.272;2023-01-29T11:43:26;101333.22;;;1.01
62611;BMP280;48683;48.084;17.272;2023-01-29T11:45:56;101315.38;;;0.93
62611;BMP280;48683;48.084;17.272;2023-01-29T11:48:40;101314.28;;;0.94
62611;BMP280;48683;48.084;17.272;2023-01-29T11:51:09;101306.06;;;0.95
62611;BMP280;48683;48.084;17.272;2023-01-29T11:53:39;101303.63;;;0.85
62611;BMP280;48683;48.084;17.272;2023-01-29T11:58:47;101315.66;;;0.91
62611;BMP280;48683;48.084;17.272;2023-01-29T12:01:16;101304.97;;;1.10
62611;BMP280;48683;48.084;17.272;2023-01-29T12:03:47;101303.53;;;1.04
62611;BMP280;48683;48.084;17.272;2023-01-29T12:06:21;101298.13;;;0.95
62611;BMP280;48683;48.084;17.272;2023-01-29T12:08:59;101293.03;;;1.13
62611;BMP280;48683;48.084;17.272;2023-01-29T12:11:31;101276.19;;;1.09
62611;BMP280;48683;48.084;17.272;2023-01-29T12:14:00;101275.13;;;0.96
62611;BMP280;48683;48.084;17.272;2023-01-29T12:24:46;101260.59;;;1.07
62611;BMP280;48683;48.084;17.272;2023-01-29T12:27:41;101250.03;;;1.07
62611;BMP280;48683;48.084;17.272;2023-01-29T12:30:15;101254.25;;;0.94
62611;BMP280;48683;48.084;17.272;2023-01-29T12:38:22;101244.84;;;1.02
62611;BMP280;48683;48.084;17.272;2023-01-29T12:40:56;101249.34;;;1.15
62611;BMP280;48683;48.084;17.272;2023-01-29T12:43:48;101234.84;;;0.99
62611;BMP280;48683;48.084;17.272;2023-01-29T12:46:29;101236.13;;;1.02
62611;BMP280;48683;48.084;17.272;2023-01-29T12:48:59;101234.53;;;1.14
62611;BMP280;48683;48.084;17.272;2023-01-29T12:51:32;101228.47;;;1.14
62611;BMP280;48683;48.084;17.272;2023-01-29T12:54:06;101228.63;;;1.17
62611;BMP280;48683;48.084;17.272;2023-01-29T12:56:36;101213.09;;;1.02
62611;BMP280;48683;48.084;17.272;2023-01-29T12:59:18;101223.56;;;1.07
62611;BMP280;48683;48.084;17.272;2023-01-29T13:01:49;101211.56;;;1.01
62611;BMP280;48683;48.084;17.272;2023-01-29T13:06:51;101203.72;;;0.82
62611;BMP280;48683;48.084;17.272;2023-01-29T13:09:23;101217.41;;;0.98
62611;BMP280;48683;48.084;17.272;2023-01-29T13:12:02;101221.72;;;0.94
62611;BMP280;48683;48.084;17.272;2023-01-29T13:14:46;101208.81;;;0.79
62611;BMP280;48683;48.084;17.272;2023-01-29T13:17:33;101218.28;;;0.93
62611;BMP280;48683;48.084;17.272;2023-01-29T13:20:11;101204.69;;;0.86
62611;BMP280;48683;48.084;17.272;2023-01-29T13:22:39;101209.19;;;1.00
62611;BMP280;48683;48.084;17.272;2023-01-29T13:25:13;101203.91;;;0.86
62611;BMP280;48683;48.084;17.272;2023-01-29T13:27:41;101198.13;;;0.70
62611;BMP280;48683;48.084;17.272;2023-01-29T13:30:22;101210.97;;;0.63
62611;BMP280;48683;48.084;17.272;2023-01-29T13:32:50;101204.91;;;0.49
62611;BMP280;48683;48.084;17.272;2023-01-29T13:35:19;101207.84;;;0.47
62611;BMP280;48683;48.084;17.272;2023-01-29T13:37:51;101209.53;;;0.57
62611;BMP280;48683;48.084;17.272;2023-01-29T13:40:26;101207.34;;;0.59
62611;BMP280;48683;48.084;17.272;2023-01-29T13:42:53;101201.78;;;0.61
62611;BMP280;48683;48.084;17.272;2023-01-29T13:45:34;101204.41;;;0.47
62611;BMP280;48683;48.084;17.272;2023-01-29T13:48:16;101204.63;;;0.51
62611;BMP280;48683;48.084;17.272;2023-01-29T13:50:44;101213.72;;;0.58
62611;BMP280;48683;48.084;17.272;2023-01-29T13:53:20;101199.53;;;0.54
62611;BMP280;48683;48.084;17.272;2023-01-29T13:55:47;101194.63;;;0.34
62611;BMP280;48683;48.084;17.272;2023-01-29T14:00:58;101200.88;;;0.24
62611;BMP280;48683;48.084;17.272;2023-01-29T14:13:41;101201.34;;;0.13
62611;BMP280;48683;48.084;17.272;2023-01-29T14:18:47;101209.25;;;0.13
62611;BMP280;48683;48.084;17.272;2023-01-29T14:23:44;101207.53;;;0.22
62611;BMP280;48683;48.084;17.272;2023-01-29T14:26:41;101214.66;;;0.21
62611;BMP280;48683;48.084;17.272;2023-01-29T14:31:45;101207.44;;;0.27
62611;BMP280;48683;48.084;17.272;2023-01-29T14:34:24;101204.84;;;0.08
62611;BMP280;48683;48.084;17.272;2023-01-29T14:36:56;101203.13;;;0.17
62611;BMP280;48683;48.084;17.272;2023-01-29T14:39:35;101219.09;;;0.26
62611;BMP280;48683;48.084;17.272;2023-01-29T14:42:04;101210.38;;;0.25
62611;BMP280;48683;48.084;17.272;2023-01-29T14:53:00;101207.59;;;0.03
62611;BMP280;48683;48.084;17.272;2023-01-29T14:55:40;101205.31;;;-0.04
62611;BMP280;48683;48.084;17.272;2023-01-29T14:58:22;101212.88;;;0.03
62611;BMP280;48683;48.084;17.272;2023-01-29T15:00:51;101210.91;;;-0.05
62611;BMP280;48683;48.084;17.272;2023-01-29T15:03:38;101206.97;;;-0.08
62611;BMP280;48683;48.084;17.272;2023-01-29T15:06:05;101206.47;;;-0.10
62611;BMP280;48683;48.084;17.272;2023-01-29T15:08:36;101201.47;;;-0.11
62611;BMP280;48683;48.084;17.272;2023-01-29T15:11:07;101209.00;;;-0.18
62611;BMP280;48683;48.084;17.272;2023-01-29T15:14:04;101215.84;;;-0.17
62611;BMP280;48683;48.084;17.272;2023-01-29T15:16:41;101206.41;;;-0.23
62611;BMP280;48683;48.084;17.272;2023-01-29T15:19:21;101216.13;;;-0.19
62611;BMP280;48683;48.084;17.272;2023-01-29T15:24:32;101215.47;;;-0.11
62611;BMP280;48683;48.084;17.272;2023-01-29T15:26:57;101215.63;;;-0.21
62611;BMP280;48683;48.084;17.272;2023-01-29T15:29:25;101207.59;;;-0.29
62611;BMP280;48683;48.084;17.272;2023-01-29T15:31:51;101211.50;;;-0.27
62611;BMP280;48683;48.084;17.272;2023-01-29T15:34:16;101211.88;;;-0.33
62611;BMP280;48683;48.084;17.272;2023-01-29T15:36:42;101216.66;;;-0.35
62611;BMP280;48683;48.084;17.272;2023-01-29T15:41:36;101221.53;;;-0.10
62611;BMP280;48683;48.084;17.272;2023-01-29T15:44:02;101224.38;;;-0.07
62611;BMP280;48683;48.084;17.272;2023-01-29T15:46:31;101213.22;;;-0.17
62611;BMP280;48683;48.084;17.272;2023-01-29T15:48:59;101214.59;;;-0.38
62611;BMP280;48683;48.084;17.272;2023-01-29T15:51:26;101205.25;;;-0.50
62611;BMP280;48683;48.084;17.272;2023-01-29T15:53:55;101196.56;;;-0.69
62611;BMP280;48683;48.084;17.272;2023-01-29T15:56:29;101207.75;;;-0.77
62611;BMP280;48683;48.084;17.272;2023-01-29T15:58:59;101217.25;;;-0.76
62611;BMP280;48683;48.084;17.272;2023-01-29T16:01:28;101207.84;;;-0.82
62611;BMP280;48683;48.084;17.272;2023-01-29T16:03:54;101212.34;;;-0.82
62611;BMP280;48683;48.084;17.272;2023-01-29T16:06:22;101212.34;;;-0.82
62611;BMP280;48683;48.084;17.272;2023-01-29T16:08:50;101204.63;;;-0.79
62611;BMP280;48683;48.084;17.272;2023-01-29T16:11:18;101206.41;;;-0.74
62611;BMP280;48683;48.084;17.272;2023-01-29T16:13:44;101214.03;;;-0.73
62611;BMP280;48683;48.084;17.272;2023-01-29T16:16:17;101221.03;;;-0.63
62611;BMP280;48683;48.084;17.272;2023-01-29T16:18:44;101227.66;;;-0.66
62611;BMP280;48683;48.084;17.272;2023-01-29T16:21:21;101229.28;;;-0.70
62611;BMP280;48683;48.084;17.272;2023-01-29T16:23:52;101231.38;;;-0.67
62611;BMP280;48683;48.084;17.272;2023-01-29T16:26:21;101230.44;;;-0.76
62611;BMP280;48683;48.084;17.272;2023-01-29T16:28:48;101220.88;;;-0.72